Time;durP1;ratioP1;P1;durP2;ratioP2;P2;SDS_P1;SDS_P2;PMS_P1;PMS_P2;Temp;Humidity;BMP_temperature;BMP_pressure;BME280_temperature;BME280_humidity;BME280_pressure;Samples;Min_cycle;Max_cycle;Signal;HPM_P1;HPM_P2
2022/11/23 00:02:06;;;;;;;10.93;4.10;;;;;;;3.53;100.00;98288.63;5081837;28;20114;-81
2022/11/23 00:04:32;;;;;;;10.13;3.88;;;;;;;3.60;100.00;98288.25;5053789;28;20448;-81
2022/11/23 00:06:59;;;;;;;6.95;3.08;;;;;;;3.56;100.00;98278.97;5065894;28;20064;-81
2022/11/23 00:09:26;;;;;;;9.43;4.15;;;;;;;3.39;100.00;98253.91;5066179;28;20052;-81
2022/11/23 00:11:52;;;;;;;13.38;3.55;;;;;;;3.25;100.00;98243.38;5068413;28;20048;-81
2022/11/23 00:14:19;;;;;;;8.60;3.63;;;;;;;3.60;100.00;98295.19;5081986;28;20059;-81
2022/11/23 00:16:46;;;;;;;7.85;3.03;;;;;;;3.55;100.00;98286.81;5089210;28;20052;-81
2022/11/23 00:19:12;;;;;;;7.35;2.92;;;;;;;3.45;100.00;98272.63;5073173;28;20044;-80
2022/11/23 00:21:39;;;;;;;6.53;2.72;;;;;;;3.44;100.00;98278.75;5091945;28;20454;-81
2022/11/23 00:24:06;;;;;;;9.07;2.90;;;;;;;3.41;100.00;98282.28;5091323;28;20109;-81
2022/11/23 00:26:33;;;;;;;6.70;2.65;;;;;;;3.46;100.00;98280.31;5090600;28;20192;-81
2022/11/23 00:29:00;;;;;;;9.20;2.85;;;;;;;3.42;100.00;98273.63;5091065;28;20511;-81
2022/11/23 00:31:26;;;;;;;7.88;3.00;;;;;;;3.54;100.00;98275.63;5072449;28;20055;-81
2022/11/23 00:33:55;;;;;;;7.50;2.85;;;;;;;3.55;100.00;98282.47;5090902;28;20127;-80
2022/11/23 00:36:23;;;;;;;6.63;2.80;;;;;;;3.58;100.00;98290.09;5072156;28;20447;-81
2022/11/23 00:38:50;;;;;;;6.07;2.50;;;;;;;3.63;100.00;98283.84;5074430;28;20455;-81
2022/11/23 00:41:20;;;;;;;6.32;2.35;;;;;;;3.55;100.00;98285.06;5072943;28;20048;-81
2022/11/23 00:43:48;;;;;;;6.35;2.25;;;;;;;3.46;100.00;98263.97;5092835;28;20048;-81
2022/11/23 00:46:16;;;;;;;5.68;2.17;;;;;;;3.53;100.00;98284.28;5071465;28;20040;-81
2022/11/23 00:48:44;;;;;;;6.32;2.70;;;;;;;3.48;100.00;98283.66;5064972;28;20094;-81
2022/11/23 00:51:14;;;;;;;6.20;2.30;;;;;;;3.46;100.00;98287.25;5089942;28;20118;-81
2022/11/23 00:53:41;;;;;;;6.65;2.40;;;;;;;3.46;100.00;98282.09;5091196;28;20420;-81
2022/11/23 00:56:08;;;;;;;4.95;2.25;;;;;;;3.46;100.00;98289.84;5109036;28;20059;-81
2022/11/23 00:58:37;;;;;;;7.47;2.10;;;;;;;3.30;100.00;98282.81;5094457;28;20052;-81
2022/11/23 01:01:13;;;;;;;6.38;3.17;;;;;;;3.28;100.00;98273.44;5089333;28;20048;-81
2022/11/23 01:03:46;;;;;;;6.97;2.55;;;;;;;3.38;100.00;98282.44;5073112;28;20048;-81
2022/11/23 01:06:16;;;;;;;5.50;2.38;;;;;;;3.42;100.00;98281.38;5071386;28;20055;-80
2022/11/23 01:08:47;;;;;;;5.47;2.10;;;;;;;3.42;100.00;98287.38;5093665;28;20058;-81
2022/11/23 01:11:14;;;;;;;4.85;1.90;;;;;;;3.47;100.00;98275.97;5084396;28;20101;-81
2022/11/23 01:13:42;;;;;;;6.93;2.35;;;;;;;3.36;100.00;98260.97;5089129;28;20048;-80
2022/11/23 01:16:13;;;;;;;5.07;1.90;;;;;;;3.42;100.00;98271.03;5092128;28;20101;-80
2022/11/23 01:18:51;;;;;;;5.63;2.17;;;;;;;3.37;100.00;98273.84;5090679;28;20478;-81
2022/11/23 01:21:18;;;;;;;6.63;2.15;;;;;;;3.18;100.00;98248.00;5110059;28;20048;-81
2022/11/23 01:23:44;;;;;;;5.00;2.13;;;;;;;3.33;100.00;98264.56;5076265;28;20106;-81
2022/11/23 01:26:11;;;;;;;5.55;2.05;;;;;;;3.25;100.00;98258.91;5093382;28;20090;-80
2022/11/23 01:28:39;;;;;;;5.40;2.35;;;;;;;3.11;100.00;98232.84;5088108;28;20055;-81
2022/11/23 01:31:14;;;;;;;4.55;1.80;;;;;;;3.25;100.00;98253.72;5075817;28;20051;-81
2022/11/23 01:33:41;;;;;;;5.30;2.08;;;;;;;3.21;100.00;98257.38;5075936;28;20048;-81
2022/11/23 01:36:13;;;;;;;5.25;1.77;;;;;;;3.26;100.00;98251.97;5093144;28;20545;-82
2022/11/23 01:38:41;;;;;;;4.68;2.10;;;;;;;3.28;100.00;98252.75;5087373;28;20054;-81
2022/11/23 01:41:12;;;;;;;4.05;1.73;;;;;;;3.29;100.00;98249.25;5074216;28;20093;-80
2022/11/23 01:43:39;;;;;;;4.82;1.85;;;;;;;3.18;100.00;98236.81;5094004;28;20473;-81
2022/11/23 01:46:07;;;;;;;3.22;1.60;;;;;;;2.89;100.00;98192.50;5092985;28;20044;-81
2022/11/23 01:48:51;;;;;;;4.43;1.80;;;;;;;3.26;100.00;98246.78;5094296;28;20093;-81
2022/11/23 01:51:22;;;;;;;4.70;1.83;;;;;;;3.18;100.00;98235.06;5093929;28;20538;-81
2022/11/23 01:53:53;;;;;;;6.25;2.65;;;;;;;3.26;100.00;98249.38;5093102;28;20047;-81
2022/11/23 01:56:27;;;;;;;5.18;1.90;;;;;;;2.99;100.00;98198.06;5092514;28;20097;-81
2022/11/23 01:58:59;;;;;;;4.65;1.88;;;;;;;3.27;100.00;98241.56;5094130;28;20501;-81
2022/11/23 02:01:26;;;;;;;4.22;1.90;;;;;;;3.26;100.00;98239.91;5108960;28;20529;-81
2022/11/23 02:03:55;;;;;;;3.38;1.52;;;;;;;3.11;100.00;98218.16;5075904;28;20063;-81
2022/11/23 02:06:22;;;;;;;6.18;1.83;;;;;;;2.95;100.00;98184.44;5073593;28;20044;-81
2022/11/23 02:08:49;;;;;;;3.60;1.75;;;;;;;3.20;100.00;98228.06;5092560;28;20653;-81
2022/11/23 02:11:16;;;;;;;4.53;1.80;;;;;;;3.13;100.00;98220.69;5075174;28;20051;-81
2022/11/23 02:13:45;;;;;;;3.13;1.42;;;;;;;3.13;100.00;98229.28;5093412;28;20532;-81
2022/11/23 02:16:12;;;;;;;5.00;2.08;;;;;;;3.17;100.00;98228.25;5096929;28;20044;-81
2022/11/23 02:18:43;;;;;;;4.53;1.88;;;;;;;3.12;100.00;98227.63;5075141;28;20048;-81
2022/11/23 02:21:10;;;;;;;4.78;1.90;;;;;;;3.17;100.00;98224.78;5093297;28;20060;-81
2022/11/23 02:23:46;;;;;;;4.30;1.80;;;;;;;3.17;100.00;98227.38;5075184;28;20055;-81
2022/11/23 02:26:24;;;;;;;3.65;1.63;;;;;;;3.19;100.00;98218.66;5079229;28;20047;-81
2022/11/23 02:29:12;;;;;;;4.05;1.80;;;;;;;3.22;100.00;98228.00;5075140;28;20052;-81
2022/11/23 02:31:39;;;;;;;3.92;1.70;;;;;;;3.16;100.00;98213.63;5092384;28;20056;-81
2022/11/23 02:34:06;;;;;;;3.75;1.70;;;;;;;3.12;100.00;98209.53;5092641;28;20101;-81
2022/11/23 02:36:40;;;;;;;3.42;1.67;;;;;;;3.11;100.00;98219.94;5074324;28;20040;-81
2022/11/23 02:39:08;;;;;;;3.08;1.52;;;;;;;3.11;100.00;98214.75;5092775;28;20052;-81
2022/11/23 02:41:38;;;;;;;5.90;1.92;;;;;;;3.04;100.00;98219.38;5092851;28;20040;-81
2022/11/23 02:44:13;;;;;;;3.60;1.58;;;;;;;3.04;100.00;98215.03;5074862;28;20044;-81
2022/11/23 02:46:40;;;;;;;4.85;1.85;;;;;;;3.05;100.00;98202.97;5091092;28;20474;-81
2022/11/23 02:49:07;;;;;;;3.35;1.80;;;;;;;3.09;100.00;98191.56;5074443;28;20102;-81
2022/11/23 02:51:34;;;;;;;3.83;1.75;;;;;;;3.03;100.00;98187.53;5073368;28;20051;-81
2022/11/23 02:54:01;;;;;;;3.47;1.63;;;;;;;3.13;100.00;98200.00;5092110;28;20078;-81
2022/11/23 02:56:27;;;;;;;5.95;2.00;;;;;;;3.01;100.00;98191.06;5073274;28;20044;-80
2022/11/23 02:58:54;;;;;;;4.78;1.60;;;;;;;2.93;100.00;98175.13;5091838;28;20055;-81
2022/11/23 03:01:21;;;;;;;5.47;2.00;;;;;;;3.03;100.00;98192.69;5073240;28;20101;-81
2022/11/23 03:03:47;;;;;;;4.93;2.00;;;;;;;3.05;100.00;98192.63;5063844;28;20473;-81
2022/11/23 03:06:14;;;;;;;5.57;2.05;;;;;;;2.95;100.00;98187.03;5091265;28;20044;-81
2022/11/23 03:08:41;;;;;;;5.22;2.00;;;;;;;2.93;100.00;98175.94;5092023;28;20043;-81
2022/11/23 03:11:07;;;;;;;6.00;2.25;;;;;;;2.99;100.00;98198.06;5074495;28;20448;-81
2022/11/23 03:13:34;;;;;;;6.68;1.95;;;;;;;2.96;100.00;98193.91;5074301;28;20089;-81
2022/11/23 03:16:01;;;;;;;4.32;1.80;;;;;;;2.96;100.00;98185.31;5094128;28;20105;-81
2022/11/23 03:18:28;;;;;;;4.25;1.80;;;;;;;2.87;100.00;98178.81;5092045;28;20097;-81
2022/11/23 03:20:54;;;;;;;5.15;2.15;;;;;;;2.92;100.00;98168.25;5091861;28;20047;-80
2022/11/23 03:23:21;;;;;;;3.97;2.05;;;;;;;2.85;100.00;98180.63;5074197;28;20473;-82
2022/11/23 03:25:55;;;;;;;6.63;2.25;;;;;;;2.80;100.00;98187.78;5091183;28;20482;-81
2022/11/23 03:28:22;;;;;;;5.05;1.95;;;;;;;2.85;100.00;98185.78;5091617;28;20147;-81
2022/11/23 03:30:49;;;;;;;6.15;2.15;;;;;;;2.73;100.00;98163.97;5076358;28;20154;-81
2022/11/23 03:33:16;;;;;;;5.57;2.10;;;;;;;2.80;100.00;98182.59;5091786;28;20044;-81
2022/11/23 03:35:44;;;;;;;6.47;2.25;;;;;;;2.89;100.00;98196.84;5090541;28;20048;-81
2022/11/23 03:38:11;;;;;;;6.40;2.00;;;;;;;2.79;100.00;98193.84;5073344;28;20129;-81
2022/11/23 03:40:38;;;;;;;6.32;2.30;;;;;;;2.88;100.00;98184.81;5090757;28;20608;-81
2022/11/23 03:43:05;;;;;;;4.93;2.03;;;;;;;2.84;100.00;98174.63;5074046;28;20551;-81
2022/11/23 03:45:31;;;;;;;7.07;2.47;;;;;;;2.72;100.00;98169.19;5072862;28;20436;-81
2022/11/23 03:47:58;;;;;;;5.30;2.08;;;;;;;2.74;100.00;98170.78;5071745;28;20043;-81
2022/11/23 03:50:25;;;;;;;3.83;1.83;;;;;;;2.85;100.00;98171.16;5091114;28;20056;-81
2022/11/23 03:52:53;;;;;;;6.53;2.30;;;;;;;2.78;100.00;98145.63;5091190;28;20101;-81
2022/11/23 03:55:20;;;;;;;7.10;1.83;;;;;;;2.84;100.00;98161.69;5091600;28;20101;-81
2022/11/23 03:57:47;;;;;;;4.78;1.95;;;;;;;2.88;100.00;98158.97;5090409;28;20124;-80
2022/11/23 04:00:15;;;;;;;4.75;2.10;;;;;;;2.81;100.00;98145.50;5091548;28;20052;-81
2022/11/23 04:02:42;;;;;;;6.38;2.20;;;;;;;2.79;100.00;98145.56;5086134;28;20048;-81
2022/11/23 04:05:09;;;;;;;6.63;2.28;;;;;;;2.84;100.00;98137.63;5091781;28;20044;-82
2022/11/23 04:07:36;;;;;;;6.03;2.13;;;;;;;2.89;100.00;98138.22;5071911;28;20109;-81
2022/11/23 04:10:03;;;;;;;4.55;2.03;;;;;;;2.86;100.00;98138.38;5073938;28;20059;-81
2022/11/23 04:12:30;;;;;;;5.78;2.30;;;;;;;2.89;100.00;98127.06;5073526;28;20072;-81
2022/11/23 04:14:57;;;;;;;6.07;2.40;;;;;;;2.84;100.00;98111.78;5072517;28;20056;-81
2022/11/23 04:17:23;;;;;;;5.32;2.00;;;;;;;2.80;100.00;98115.44;5090303;28;20055;-81
2022/11/23 04:19:50;;;;;;;5.95;2.10;;;;;;;2.79;100.00;98111.97;5106831;28;20465;-81
2022/11/23 04:22:17;;;;;;;7.20;2.80;;;;;;;2.63;100.00;98088.63;5090733;28;20056;-81
2022/11/23 04:24:43;;;;;;;7.65;2.33;;;;;;;2.82;100.00;98111.84;5091811;28;20127;-82
2022/11/23 04:27:10;;;;;;;6.45;2.60;;;;;;;2.85;100.00;98109.13;5071380;28;20478;-81
2022/11/23 04:29:37;;;;;;;7.43;2.97;;;;;;;2.84;100.00;98114.34;5093064;28;20097;-81
2022/11/23 04:32:04;;;;;;;7.57;2.30;;;;;;;2.80;100.00;98107.66;5094809;28;20059;-81
2022/11/23 04:34:31;;;;;;;10.50;3.03;;;;;;;2.75;100.00;98094.97;5070919;28;20044;-81
2022/11/23 04:36:58;;;;;;;7.32;2.53;;;;;;;2.52;100.00;98052.13;5093732;28;20052;-82
2022/11/23 04:39:24;;;;;;;7.85;2.65;;;;;;;2.92;100.00;98099.31;5094880;28;20048;-81
2022/11/23 04:41:51;;;;;;;5.50;2.13;;;;;;;2.82;100.00;98069.66;5095052;28;20478;-81
2022/11/23 04:44:20;;;;;;;8.15;2.42;;;;;;;3.06;100.00;98090.88;5103330;28;20040;-81
2022/11/23 04:46:46;;;;;;;4.57;2.15;;;;;;;3.21;100.00;98100.47;5080460;28;20089;-81
2022/11/23 04:49:13;;;;;;;4.13;1.95;;;;;;;2.96;100.00;98056.91;5076554;28;20048;-81
2022/11/23 04:51:41;;;;;;;6.53;2.50;;;;;;;3.09;100.00;98093.31;5094918;28;20059;-81
2022/11/23 04:54:08;;;;;;;7.97;2.83;;;;;;;3.31;100.00;98087.06;5094454;28;20073;-81
2022/11/23 04:56:35;;;;;;;7.32;2.35;;;;;;;3.36;100.00;98090.25;5075758;28;20044;-81
2022/11/23 04:59:01;;;;;;;5.82;2.22;;;;;;;3.40;100.00;98078.88;5076484;28;20120;-81
2022/11/23 05:01:28;;;;;;;10.00;2.78;;;;;;;3.46;100.00;98075.13;5076199;28;20048;-82
2022/11/23 05:03:55;;;;;;;9.65;3.45;;;;;;;3.50;100.00;98076.63;5098138;28;20123;-80
2022/11/23 05:06:21;;;;;;;11.75;3.67;;;;;;;3.42;100.00;98072.69;5093895;28;20471;-81
2022/11/23 05:08:48;;;;;;;7.60;2.70;;;;;;;3.48;100.00;98073.28;5076931;28;20097;-81
2022/11/23 05:11:15;;;;;;;7.03;2.60;;;;;;;3.57;100.00;98065.06;5094283;28;20097;-80
2022/11/23 05:13:42;;;;;;;8.23;2.80;;;;;;;3.65;100.00;98062.91;5093669;28;20478;-83
2022/11/23 05:16:08;;;;;;;7.40;2.97;;;;;;;3.69;100.00;98068.75;5081901;28;20102;-82
2022/11/23 05:18:35;;;;;;;9.45;2.70;;;;;;;3.76;100.00;98059.75;5076525;28;20078;-81
2022/11/23 05:21:02;;;;;;;8.00;2.90;;;;;;;3.78;100.00;98051.00;5076157;28;20105;-81
2022/11/23 05:23:28;;;;;;;7.90;2.47;;;;;;;3.86;100.00;98055.78;5076394;28;20051;-81
2022/11/23 05:25:55;;;;;;;16.55;5.97;;;;;;;3.94;100.00;98048.41;5093462;28;20539;-82
2022/11/23 05:28:22;;;;;;;9.25;3.13;;;;;;;4.01;100.00;98050.69;5105800;28;20098;-82
2022/11/23 05:31:05;;;;;;;8.38;2.90;;;;;;;3.97;100.00;98031.91;5088391;28;20056;-81
2022/11/23 05:33:32;;;;;;;7.32;2.85;;;;;;;3.89;100.00;98005.59;5075824;28;20826;-82
2022/11/23 05:35:59;;;;;;;8.13;2.72;;;;;;;4.03;100.00;98020.38;5074988;28;20451;-82
2022/11/23 05:38:26;;;;;;;7.38;2.50;;;;;;;3.99;100.00;98012.75;5094333;28;20040;-82
2022/11/23 05:40:53;;;;;;;6.97;2.35;;;;;;;3.98;100.00;98016.28;5092130;28;20112;-82
2022/11/23 05:43:20;;;;;;;8.50;2.42;;;;;;;4.03;100.00;98015.19;5075698;28;20055;-82
2022/11/23 05:45:46;;;;;;;7.75;2.60;;;;;;;3.96;100.00;98005.16;5075050;28;20497;-82
2022/11/23 05:48:13;;;;;;;6.80;2.50;;;;;;;3.92;100.00;98003.66;5082493;28;20052;-81
2022/11/23 05:50:40;;;;;;;8.40;2.85;;;;;;;3.89;100.00;97995.22;5093510;28;20145;-81
2022/11/23 05:53:08;;;;;;;9.15;3.08;;;;;;;3.82;100.00;97984.34;5093572;28;20098;-82
2022/11/23 05:55:35;;;;;;;7.60;2.75;;;;;;;3.85;100.00;97991.97;5074901;28;20539;-81
2022/11/23 05:58:02;;;;;;;8.57;2.80;;;;;;;3.66;100.00;97962.81;5074700;28;20905;-81
2022/11/23 06:00:29;;;;;;;11.50;2.70;;;;;;;3.69;100.00;97952.31;5091861;28;20044;-81
2022/11/23 06:03:02;;;;;;;12.65;3.40;;;;;;;3.90;100.00;97963.25;5080972;28;20051;-81
2022/11/23 06:05:29;;;;;;;7.13;2.55;;;;;;;4.19;100.00;97990.13;5108530;28;20048;-81
2022/11/23 06:07:56;;;;;;;7.78;2.20;;;;;;;4.39;100.00;97978.63;5073248;28;20101;-82
2022/11/23 06:10:23;;;;;;;8.30;2.22;;;;;;;4.69;100.00;97970.03;5092103;28;20074;-81
2022/11/23 06:12:50;;;;;;;6.50;2.03;;;;;;;5.23;100.00;97980.69;5091346;28;20048;-80
2022/11/23 06:15:17;;;;;;;5.95;2.15;;;;;;;5.46;100.00;97944.75;5064604;28;20102;-82
2022/11/23 06:17:44;;;;;;;9.40;2.13;;;;;;;5.85;100.00;97957.00;5069079;28;20056;-81
2022/11/23 06:20:11;;;;;;;11.05;4.03;;;;;;;6.27;100.00;97970.84;5082244;28;20114;-81
2022/11/23 06:22:38;;;;;;;10.02;2.72;;;;;;;6.32;100.00;97967.09;5091631;28;20056;-81
2022/11/23 06:25:05;;;;;;;11.05;1.95;;;;;;;6.62;100.00;97959.06;5068976;28;20746;-81
2022/11/23 06:27:31;;;;;;;5.63;1.52;;;;;;;6.59;100.00;97944.53;5084188;28;20053;-82
2022/11/23 06:29:58;;;;;;;5.40;1.63;;;;;;;6.74;100.00;97952.25;5064083;28;20481;-82
2022/11/23 06:32:25;;;;;;;6.90;2.55;;;;;;;6.84;100.00;97954.13;5086813;28;20052;-82
2022/11/23 06:34:51;;;;;;;8.10;2.28;;;;;;;6.89;100.00;97934.78;5085952;28;20082;-81
2022/11/23 06:37:24;;;;;;;8.93;2.25;;;;;;;6.79;100.00;97909.38;5088055;28;20064;-82
2022/11/23 06:39:51;;;;;;;9.30;2.45;;;;;;;6.99;100.00;97923.66;5085262;28;20090;-81
2022/11/23 06:42:18;;;;;;;11.23;2.00;;;;;;;7.20;100.00;97951.75;5083748;28;20047;-82
2022/11/23 06:45:05;;;;;;;10.63;2.38;;;;;;;7.29;100.00;97929.47;5071535;28;20151;-82
2022/11/23 06:47:32;;;;;;;10.82;2.25;;;;;;;7.42;100.00;97927.69;5081466;28;20056;-82
2022/11/23 06:49:59;;;;;;;8.43;2.28;;;;;;;7.46;100.00;97930.91;5073743;28;20451;-83
2022/11/23 06:52:26;;;;;;;10.45;2.03;;;;;;;7.57;100.00;97929.22;5066433;28;20486;-83
2022/11/23 06:54:53;;;;;;;10.68;2.40;;;;;;;7.38;100.00;97900.19;5091658;28;20040;-82
2022/11/23 06:57:20;;;;;;;11.02;2.25;;;;;;;7.72;100.00;97929.06;5084211;28;20105;-83
2022/11/23 06:59:47;;;;;;;10.57;2.30;;;;;;;7.82;100.00;97918.84;5081547;28;20055;-82
2022/11/23 07:02:14;;;;;;;9.60;2.28;;;;;;;7.71;100.00;97932.63;5081918;28;20093;-81
2022/11/23 07:04:40;;;;;;;8.43;2.63;;;;;;;7.77;100.00;97921.75;5071582;28;20489;-82
2022/11/23 07:07:08;;;;;;;7.80;2.30;;;;;;;7.70;100.00;97889.28;5086674;28;20439;-82
2022/11/23 07:09:35;;;;;;;9.73;2.10;;;;;;;7.95;100.00;97917.88;5086763;28;20093;-83
2022/11/23 07:12:02;;;;;;;9.32;2.00;;;;;;;8.05;100.00;97927.63;5068304;28;20106;-82
2022/11/23 07:14:28;;;;;;;11.32;2.17;;;;;;;8.05;100.00;97912.81;5090631;28;20094;-81
2022/11/23 07:16:55;;;;;;;12.82;2.38;;;;;;;8.02;100.00;97917.41;5084435;28;20052;-82
2022/11/23 07:19:22;;;;;;;7.72;2.10;;;;;;;8.08;100.00;97888.31;5064952;28;20047;-82
2022/11/23 07:21:48;;;;;;;16.25;2.38;;;;;;;7.99;100.00;97875.00;5078479;28;20455;-80
2022/11/23 07:24:15;;;;;;;11.35;2.63;;;;;;;8.06;100.00;97875.41;5083001;28;20045;-82
2022/11/23 07:26:42;;;;;;;9.35;2.00;;;;;;;8.21;100.00;97883.03;5077386;28;20055;-81
2022/11/23 07:29:09;;;;;;;10.55;3.03;;;;;;;8.11;100.00;97903.72;5067183;28;20048;-82
2022/11/23 07:31:36;;;;;;;13.55;2.70;;;;;;;8.27;100.00;97891.25;5066731;28;20063;-82
2022/11/23 07:34:03;;;;;;;13.65;2.58;;;;;;;8.25;100.00;97881.84;5084904;28;20386;-82
2022/11/23 07:36:30;;;;;;;14.13;2.65;;;;;;;8.21;100.00;97896.06;5067594;28;20056;-82
2022/11/23 07:38:57;;;;;;;11.38;2.40;;;;;;;8.15;100.00;97872.09;5070429;28;20052;-82
2022/11/23 07:41:26;;;;;;;11.50;2.20;;;;;;;8.44;100.00;97895.22;5082553;28;20044;-82
2022/11/23 07:43:53;;;;;;;12.60;2.80;;;;;;;8.38;100.00;97866.16;5079578;28;20064;-81
2022/11/23 07:46:20;;;;;;;16.10;2.47;;;;;;;8.38;100.00;97845.31;5085516;28;20056;-83
2022/11/23 07:48:47;;;;;;;11.23;2.55;;;;;;;8.50;100.00;97873.09;5078535;28;20125;-82
2022/11/23 07:51:15;;;;;;;9.25;2.40;;;;;;;8.70;100.00;97882.03;5079865;28;20727;-81
2022/11/23 07:53:41;;;;;;;13.65;2.88;;;;;;;8.63;100.00;97878.22;5083996;28;20106;-83
2022/11/23 07:56:08;;;;;;;14.02;2.53;;;;;;;8.72;100.00;97885.34;5099202;28;20048;-83
2022/11/23 07:58:35;;;;;;;10.00;2.53;;;;;;;8.68;100.00;97871.69;5066608;28;20048;-83
2022/11/23 08:01:02;;;;;;;11.68;2.20;;;;;;;8.74;100.00;97883.44;5082077;28;20110;-81
2022/11/23 08:03:28;;;;;;;12.52;2.50;;;;;;;8.88;100.00;97892.84;5067098;28;20044;-83
2022/11/23 08:05:56;;;;;;;13.23;2.78;;;;;;;8.78;100.00;97894.47;5068463;28;20759;-82
2022/11/23 08:08:23;;;;;;;10.60;2.70;;;;;;;8.85;100.00;97893.06;5100323;28;20101;-82
2022/11/23 08:10:50;;;;;;;11.95;2.28;;;;;;;8.84;100.00;97891.41;5068292;28;20443;-82
2022/11/23 08:13:21;;;;;;;11.27;2.40;;;;;;;8.77;100.00;97890.22;5068608;28;20392;-82
2022/11/23 08:15:49;;;;;;;13.93;2.60;;;;;;;8.78;100.00;97890.09;5089496;28;20044;-82
2022/11/23 08:18:20;;;;;;;;;;;;;;;8.85;100.00;97886.09;5092899;28;20039;-82
2022/11/23 08:20:47;;;;;;;12.43;2.28;;;;;;;8.67;100.00;97856.16;5083762;28;20370;-82
2022/11/23 08:23:14;;;;;;;11.63;2.20;;;;;;;8.80;100.00;97869.09;5085508;28;20452;-82
2022/11/23 08:25:40;;;;;;;9.82;2.22;;;;;;;8.74;100.00;97859.97;5083630;28;20089;-82
2022/11/23 08:28:07;;;;;;;10.40;2.80;;;;;;;8.86;100.00;97885.13;5086007;28;20052;-82
2022/11/23 08:30:35;;;;;;;15.82;2.90;;;;;;;8.73;100.00;97850.50;5088305;28;20043;-83
2022/11/23 08:33:03;;;;;;;11.15;2.15;;;;;;;9.16;100.00;97893.34;5087616;28;20082;-82
2022/11/23 08:35:33;;;;;;;11.27;2.35;;;;;;;8.82;100.00;97865.44;5070074;28;20486;-82
2022/11/23 08:37:59;;;;;;;11.70;2.53;;;;;;;8.65;100.00;97871.94;5071494;28;20052;-82
2022/11/23 08:40:26;;;;;;;11.55;2.00;;;;;;;8.95;100.00;97891.44;5088711;28;20056;-81
2022/11/23 08:42:53;;;;;;;12.70;2.05;;;;;;;8.79;100.00;97894.38;5085213;28;20444;-83
2022/11/23 08:45:21;;;;;;;7.10;1.92;;;;;;;8.91;100.00;97890.00;5066740;28;20074;-82
2022/11/23 08:47:48;;;;;;;11.90;3.65;;;;;;;8.85;100.00;97878.25;5086784;28;20506;-82
2022/11/23 08:50:15;;;;;;;11.25;2.60;;;;;;;8.81;100.00;97878.59;5086066;28;20106;-82
2022/11/23 08:52:41;;;;;;;11.70;2.33;;;;;;;9.03;100.00;97885.59;5081694;28;20462;-82
2022/11/23 08:55:09;;;;;;;9.20;2.25;;;;;;;8.89;100.00;97884.91;5096885;28;20048;-83
2022/11/23 08:57:35;;;;;;;10.40;3.05;;;;;;;8.88;100.00;97858.91;5068332;28;20490;-83
2022/11/23 09:00:04;;;;;;;12.23;2.83;;;;;;;8.99;100.00;97871.97;5103379;28;20097;-82
2022/11/23 09:02:32;;;;;;;7.82;1.98;;;;;;;9.11;100.00;97865.81;5068332;28;20063;-82
2022/11/23 09:04:59;;;;;;;5.05;1.92;;;;;;;8.93;100.00;97822.88;5087605;28;20044;-82
2022/11/23 09:07:27;;;;;;;6.63;1.80;;;;;;;9.12;100.00;97866.66;5068029;28;20047;-81
2022/11/23 09:09:53;;;;;;;9.27;2.90;;;;;;;9.20;100.00;97873.88;5087554;28;20501;-82
2022/11/23 09:12:20;;;;;;;10.50;2.25;;;;;;;9.20;100.00;97866.03;5089962;28;20358;-82
2022/11/23 09:14:47;;;;;;;7.45;1.77;;;;;;;9.15;100.00;97874.22;5081714;28;20094;-82
2022/11/23 09:17:13;;;;;;;12.15;2.55;;;;;;;9.11;100.00;97862.38;5087868;28;20461;-82
2022/11/23 09:19:40;;;;;;;12.15;2.15;;;;;;;8.89;100.00;97844.94;5086624;28;20060;-82
2022/11/23 09:22:07;;;;;;;6.93;1.90;;;;;;;9.17;100.00;97856.69;5089262;28;20546;-82
2022/11/23 09:24:33;;;;;;;12.60;2.42;;;;;;;9.07;100.00;97847.91;5099461;28;20069;-82
2022/11/23 09:27:01;;;;;;;9.13;2.03;;;;;;;9.34;100.00;97857.97;5064540;28;20053;-81
2022/11/23 09:29:27;;;;;;;8.88;2.83;;;;;;;9.20;100.00;97819.88;5029148;28;26416;-82
2022/11/23 09:31:54;;;;;;;9.73;2.28;;;;;;;9.13;100.00;97863.06;5025529;28;20099;-82
2022/11/23 09:34:21;;;;;;;7.47;2.28;;;;;;;9.13;100.00;97861.28;5024276;28;20115;-82
2022/11/23 09:36:48;;;;;;;13.52;3.30;;;;;;;9.27;100.00;97865.44;5027828;28;20115;-82
2022/11/23 09:39:15;;;;;;;9.05;2.33;;;;;;;9.18;100.00;97860.94;5032354;28;20523;-82
2022/11/23 09:42:06;;;;;;;16.55;3.30;;;;;;;9.46;100.00;97854.38;5031317;28;20049;-82
2022/11/23 09:44:33;;;;;;;9.25;2.10;;;;;;;9.18;100.00;97842.66;5032847;28;20056;-83
2022/11/23 09:47:51;;;;;;;12.68;3.25;;;;;;;9.39;100.00;97841.94;5028633;28;20093;-82
2022/11/23 09:50:57;;;;;;;8.77;2.20;;;;;;;9.36;100.00;97831.75;5008610;28;20046;-82
2022/11/23 09:53:33;;;;;;;14.90;3.03;;;;;;;9.31;100.00;97835.56;5020707;28;20053;-81
2022/11/23 09:56:00;;;;;;;19.20;3.35;;;;;;;9.09;100.00;97794.63;5030935;28;20501;-81
2022/11/23 09:58:38;;;;;;;10.52;2.40;;;;;;;9.25;100.00;97802.06;5039167;28;20053;-81
2022/11/23 10:01:13;;;;;;;12.55;2.75;;;;;;;9.24;100.00;97817.84;5031825;28;20119;-81
2022/11/23 10:03:42;;;;;;;16.75;2.78;;;;;;;9.47;100.00;97826.47;5032168;28;20487;-82
2022/11/23 10:06:24;;;;;;;14.50;3.20;;;;;;;8.96;100.00;97772.22;5028626;28;20037;-81
2022/11/23 10:09:09;;;;;;;16.17;2.70;;;;;;;9.49;100.00;97814.13;5029239;28;20126;-81
2022/11/23 10:11:58;;;;;;;12.52;2.75;;;;;;;9.42;100.00;97799.91;5018789;28;20611;-81
2022/11/23 10:14:43;;;;;;;10.65;2.80;;;;;;;9.69;100.00;97791.66;5046482;28;20045;-81
2022/11/23 10:17:13;;;;;;;12.90;3.83;;;;;;;9.53;100.00;97788.63;5035501;28;20045;-81
2022/11/23 10:20:07;;;;;;;16.85;2.75;;;;;;;9.34;100.00;97807.53;5016775;28;20444;-81
2022/11/23 10:22:36;;;;;;;;;;;;;;;9.66;100.00;97790.09;5029124;28;20054;-81
2022/11/23 10:25:15;;;;;;;17.60;3.55;;;;;;;9.47;100.00;97761.19;5025645;28;19975;-81
2022/11/23 10:27:43;;;;;;;20.33;3.42;;;;;;;9.40;100.00;97776.53;5016392;28;20103;-81
2022/11/23 10:30:14;;;;;;;14.05;2.65;;;;;;;9.54;100.00;97761.53;5024247;28;20053;-82
2022/11/23 10:32:49;;;;;;;11.98;2.80;;;;;;;9.46;100.00;97772.59;5018816;28;20060;-81
2022/11/23 10:35:29;;;;;;;19.42;2.78;;;;;;;9.67;100.00;97772.66;5023160;28;20045;-81
2022/11/23 10:38:13;;;;;;;13.32;2.50;;;;;;;9.60;100.00;97759.25;5031037;28;20695;-81
2022/11/23 10:40:51;;;;;;;18.65;3.88;;;;;;;9.54;100.00;97753.69;5024080;28;20068;-81
2022/11/23 10:43:24;;;;;;;9.73;2.50;;;;;;;9.46;100.00;97755.16;5036202;28;20054;-81
2022/11/23 10:45:51;;;;;;;14.43;3.83;;;;;;;9.79;100.00;97762.97;5022969;28;20065;-81
2022/11/23 10:48:34;;;;;;;10.13;3.20;;;;;;;9.72;100.00;97754.84;5028158;28;20080;-81
2022/11/23 10:51:26;;;;;;;13.55;2.83;;;;;;;9.88;100.00;97755.22;5058058;28;20053;-82
2022/11/23 10:53:58;;;;;;;13.30;2.88;;;;;;;9.70;100.00;97746.25;5013326;28;20045;-81
2022/11/23 10:56:32;;;;;;;13.77;2.70;;;;;;;9.57;100.00;97746.44;5021419;28;20107;-81
2022/11/23 10:58:59;;;;;;;13.07;2.45;;;;;;;9.52;100.00;97760.84;5025069;28;20120;-81
2022/11/23 11:01:28;;;;;;;8.40;2.78;;;;;;;9.74;100.00;97742.47;5021452;28;20108;-81
2022/11/23 11:04:02;;;;;;;19.35;3.10;;;;;;;9.92;100.00;97742.75;5020224;28;20053;-81
2022/11/23 11:06:33;;;;;;;14.95;2.80;;;;;;;9.75;100.00;97754.56;5025186;28;20042;-81
2022/11/23 11:09:02;;;;;;;22.33;3.33;;;;;;;9.39;100.00;97706.16;5030919;28;20062;-81
2022/11/23 11:11:44;;;;;;;13.02;3.80;;;;;;;9.58;100.00;97731.59;5019945;28;20046;-81
2022/11/23 11:14:17;;;;;;;16.70;3.20;;;;;;;9.61;100.00;97737.41;5027045;28;20053;-81
2022/11/23 11:16:53;;;;;;;11.57;3.53;;;;;;;9.64;100.00;97737.16;5029251;28;20053;-82
2022/11/23 11:19:30;;;;;;;17.35;3.20;;;;;;;9.62;100.00;97731.22;5019208;28;20088;-81
2022/11/23 11:21:59;;;;;;;13.60;3.45;;;;;;;9.63;100.00;97703.31;5029987;28;20087;-81
2022/11/23 11:24:37;;;;;;;15.63;3.92;;;;;;;9.58;100.00;97732.44;5021130;28;20071;-81
2022/11/23 11:27:12;;;;;;;12.95;3.58;;;;;;;9.42;100.00;97722.41;5036303;28;20050;-81
2022/11/23 11:29:50;;;;;;;16.77;3.10;;;;;;;9.61;100.00;97710.44;5027699;28;20049;-81
2022/11/23 11:32:25;;;;;;;16.67;3.85;;;;;;;9.84;100.00;97737.31;5028389;28;20054;-81
2022/11/23 11:35:07;;;;;;;11.05;2.90;;;;;;;9.42;100.00;97698.06;5040105;28;20068;-81
2022/11/23 11:37:36;;;;;;;18.13;3.13;;;;;;;9.54;100.00;97709.28;5026850;28;20107;-81
2022/11/23 11:40:19;;;;;;;16.67;4.45;;;;;;;9.50;100.00;97657.31;5016972;28;66843;-81
2022/11/23 11:42:49;;;;;;;17.55;3.80;;;;;;;9.80;100.00;97691.50;5025691;28;20103;-81